sensor_id;sensor_type;location;lat;lon;timestamp;P1;durP1;ratioP1;P2;durP2;ratioP2
19869;SDS011;10097;50.862;4.696;2023-05-27T00:01:30;22.17;;;5.10;;
19869;SDS011;10097;50.862;4.696;2023-05-27T00:03:56;24.17;;;4.43;;
19869;SDS011;10097;50.862;4.696;2023-05-27T00:06:21;19.37;;;4.87;;
19869;SDS011;10097;50.862;4.696;2023-05-27T00:08:47;25.93;;;4.63;;
19869;SDS011;10097;50.862;4.696;2023-05-27T00:11:13;22.00;;;4.00;;
19869;SDS011;10097;50.862;4.696;2023-05-27T00:13:38;22.57;;;4.57;;
19869;SDS011;10097;50.862;4.696;2023-05-27T00:16:04;22.47;;;5.00;;
19869;SDS011;10097;50.862;4.696;2023-05-27T00:18:30;21.70;;;4.73;;
19869;SDS011;10097;50.862;4.696;2023-05-27T00:20:58;24.13;;;4.50;;
19869;SDS011;10097;50.862;4.696;2023-05-27T00:23:24;22.20;;;5.07;;
19869;SDS011;10097;50.862;4.696;2023-05-27T00:25:50;23.03;;;4.03;;
19869;SDS011;10097;50.862;4.696;2023-05-27T00:28:15;22.40;;;4.90;;
19869;SDS011;10097;50.862;4.696;2023-05-27T00:30:41;14.80;;;4.03;;
19869;SDS011;10097;50.862;4.696;2023-05-27T00:33:07;17.63;;;4.20;;
19869;SDS011;10097;50.862;4.696;2023-05-27T00:35:32;20.70;;;4.47;;
19869;SDS011;10097;50.862;4.696;2023-05-27T00:37:58;22.30;;;4.10;;
19869;SDS011;10097;50.862;4.696;2023-05-27T00:40:25;24.00;;;4.77;;
19869;SDS011;10097;50.862;4.696;2023-05-27T00:42:53;16.60;;;4.17;;
19869;SDS011;10097;50.862;4.696;2023-05-27T00:45:20;17.73;;;4.23;;
19869;SDS011;10097;50.862;4.696;2023-05-27T00:47:46;20.47;;;4.70;;
19869;SDS011;10097;50.862;4.696;2023-05-27T00:50:12;23.17;;;4.50;;
19869;SDS011;10097;50.862;4.696;2023-05-27T00:52:39;21.03;;;4.53;;
19869;SDS011;10097;50.862;4.696;2023-05-27T00:55:05;19.70;;;4.90;;
19869;SDS011;10097;50.862;4.696;2023-05-27T00:57:31;23.53;;;4.83;;
19869;SDS011;10097;50.862;4.696;2023-05-27T00:59:58;29.97;;;5.03;;
19869;SDS011;10097;50.862;4.696;2023-05-27T01:02:23;21.83;;;4.57;;
19869;SDS011;10097;50.862;4.696;2023-05-27T01:04:50;23.63;;;4.50;;
19869;SDS011;10097;50.862;4.696;2023-05-27T01:15:25;23.20;;;4.67;;
19869;SDS011;10097;50.862;4.696;2023-05-27T01:17:53;24.73;;;5.17;;
19869;SDS011;10097;50.862;4.696;2023-05-27T01:20:21;16.73;;;4.83;;
19869;SDS011;10097;50.862;4.696;2023-05-27T01:22:48;22.30;;;4.87;;
19869;SDS011;10097;50.862;4.696;2023-05-27T01:25:17;19.00;;;4.27;;
19869;SDS011;10097;50.862;4.696;2023-05-27T01:27:44;25.23;;;5.37;;
19869;SDS011;10097;50.862;4.696;2023-05-27T01:30:10;16.57;;;4.50;;
19869;SDS011;10097;50.862;4.696;2023-05-27T01:32:45;27.83;;;4.93;;
19869;SDS011;10097;50.862;4.696;2023-05-27T01:35:30;21.50;;;4.57;;
19869;SDS011;10097;50.862;4.696;2023-05-27T01:38:01;24.23;;;5.73;;
19869;SDS011;10097;50.862;4.696;2023-05-27T01:40:31;22.93;;;4.87;;
19869;SDS011;10097;50.862;4.696;2023-05-27T01:42:58;22.53;;;5.00;;
19869;SDS011;10097;50.862;4.696;2023-05-27T01:45:25;21.83;;;4.47;;
19869;SDS011;10097;50.862;4.696;2023-05-27T01:47:51;22.33;;;4.40;;
19869;SDS011;10097;50.862;4.696;2023-05-27T01:50:17;20.83;;;5.47;;
19869;SDS011;10097;50.862;4.696;2023-05-27T01:52:43;17.53;;;4.70;;
19869;SDS011;10097;50.862;4.696;2023-05-27T01:55:09;22.97;;;5.47;;
19869;SDS011;10097;50.862;4.696;2023-05-27T01:57:35;21.50;;;4.53;;
19869;SDS011;10097;50.862;4.696;2023-05-27T02:00:01;17.87;;;4.60;;
19869;SDS011;10097;50.862;4.696;2023-05-27T02:02:29;20.47;;;4.10;;
19869;SDS011;10097;50.862;4.696;2023-05-27T02:04:56;18.87;;;4.33;;
19869;SDS011;10097;50.862;4.696;2023-05-27T02:07:22;21.13;;;5.13;;
19869;SDS011;10097;50.862;4.696;2023-05-27T02:09:47;26.30;;;5.70;;
19869;SDS011;10097;50.862;4.696;2023-05-27T02:12:15;23.87;;;4.80;;
19869;SDS011;10097;50.862;4.696;2023-05-27T02:14:40;20.80;;;4.77;;
19869;SDS011;10097;50.862;4.696;2023-05-27T02:17:06;27.97;;;5.43;;
19869;SDS011;10097;50.862;4.696;2023-05-27T02:19:33;21.97;;;5.77;;
19869;SDS011;10097;50.862;4.696;2023-05-27T02:21:58;24.17;;;5.60;;
19869;SDS011;10097;50.862;4.696;2023-05-27T02:24:24;24.30;;;5.20;;
19869;SDS011;10097;50.862;4.696;2023-05-27T02:26:50;21.17;;;5.43;;
19869;SDS011;10097;50.862;4.696;2023-05-27T02:29:15;28.50;;;5.67;;
19869;SDS011;10097;50.862;4.696;2023-05-27T02:31:41;18.40;;;4.50;;
19869;SDS011;10097;50.862;4.696;2023-05-27T02:34:06;24.77;;;5.17;;
19869;SDS011;10097;50.862;4.696;2023-05-27T02:36:32;18.80;;;5.53;;
19869;SDS011;10097;50.862;4.696;2023-05-27T02:38:58;17.17;;;4.93;;
19869;SDS011;10097;50.862;4.696;2023-05-27T02:41:24;21.03;;;5.30;;
19869;SDS011;10097;50.862;4.696;2023-05-27T02:43:51;25.97;;;6.70;;
19869;SDS011;10097;50.862;4.696;2023-05-27T02:46:16;24.07;;;5.67;;
19869;SDS011;10097;50.862;4.696;2023-05-27T02:48:42;29.97;;;6.17;;
19869;SDS011;10097;50.862;4.696;2023-05-27T02:51:07;22.47;;;5.50;;
19869;SDS011;10097;50.862;4.696;2023-05-27T02:53:33;21.00;;;5.80;;
19869;SDS011;10097;50.862;4.696;2023-05-27T02:55:59;31.13;;;5.67;;
19869;SDS011;10097;50.862;4.696;2023-05-27T02:58:24;26.23;;;5.63;;
19869;SDS011;10097;50.862;4.696;2023-05-27T03:00:50;26.10;;;4.90;;
19869;SDS011;10097;50.862;4.696;2023-05-27T03:03:16;21.50;;;5.30;;
19869;SDS011;10097;50.862;4.696;2023-05-27T03:05:42;23.97;;;5.00;;
19869;SDS011;10097;50.862;4.696;2023-05-27T03:08:08;18.13;;;5.03;;
19869;SDS011;10097;50.862;4.696;2023-05-27T03:10:33;19.77;;;5.13;;
19869;SDS011;10097;50.862;4.696;2023-05-27T03:12:59;23.27;;;4.97;;
19869;SDS011;10097;50.862;4.696;2023-05-27T03:15:25;21.60;;;5.50;;
19869;SDS011;10097;50.862;4.696;2023-05-27T03:17:54;20.37;;;5.33;;
19869;SDS011;10097;50.862;4.696;2023-05-27T03:20:20;32.07;;;6.30;;
19869;SDS011;10097;50.862;4.696;2023-05-27T03:22:46;22.93;;;5.57;;
19869;SDS011;10097;50.862;4.696;2023-05-27T03:25:13;20.70;;;5.10;;
19869;SDS011;10097;50.862;4.696;2023-05-27T03:27:39;28.57;;;5.77;;
19869;SDS011;10097;50.862;4.696;2023-05-27T03:30:05;23.37;;;6.37;;
19869;SDS011;10097;50.862;4.696;2023-05-27T03:32:32;17.17;;;4.60;;
19869;SDS011;10097;50.862;4.696;2023-05-27T03:34:58;28.67;;;7.33;;
19869;SDS011;10097;50.862;4.696;2023-05-27T03:37:24;19.70;;;5.80;;
19869;SDS011;10097;50.862;4.696;2023-05-27T03:39:50;23.67;;;5.20;;
19869;SDS011;10097;50.862;4.696;2023-05-27T03:42:15;22.20;;;5.90;;
19869;SDS011;10097;50.862;4.696;2023-05-27T03:44:41;23.43;;;5.20;;
19869;SDS011;10097;50.862;4.696;2023-05-27T03:47:07;20.57;;;5.23;;
19869;SDS011;10097;50.862;4.696;2023-05-27T03:49:32;19.40;;;5.30;;
19869;SDS011;10097;50.862;4.696;2023-05-27T03:51:58;20.90;;;5.50;;
19869;SDS011;10097;50.862;4.696;2023-05-27T03:54:24;20.80;;;5.67;;
19869;SDS011;10097;50.862;4.696;2023-05-27T03:56:50;21.97;;;5.50;;
19869;SDS011;10097;50.862;4.696;2023-05-27T03:59:16;30.10;;;6.50;;
19869;SDS011;10097;50.862;4.696;2023-05-27T04:01:43;23.97;;;6.37;;
19869;SDS011;10097;50.862;4.696;2023-05-27T04:04:09;22.77;;;5.87;;
19869;SDS011;10097;50.862;4.696;2023-05-27T04:06:35;24.90;;;5.60;;
19869;SDS011;10097;50.862;4.696;2023-05-27T04:09:01;22.13;;;5.70;;
19869;SDS011;10097;50.862;4.696;2023-05-27T04:11:30;23.13;;;5.97;;
19869;SDS011;10097;50.862;4.696;2023-05-27T04:13:56;24.03;;;5.47;;
19869;SDS011;10097;50.862;4.696;2023-05-27T04:16:22;27.80;;;6.07;;
19869;SDS011;10097;50.862;4.696;2023-05-27T04:18:49;26.67;;;6.70;;
19869;SDS011;10097;50.862;4.696;2023-05-27T04:21:16;27.60;;;5.80;;
19869;SDS011;10097;50.862;4.696;2023-05-27T04:23:42;28.73;;;6.17;;
19869;SDS011;10097;50.862;4.696;2023-05-27T04:26:08;21.17;;;5.73;;
19869;SDS011;10097;50.862;4.696;2023-05-27T04:28:34;20.73;;;6.77;;
19869;SDS011;10097;50.862;4.696;2023-05-27T04:31:00;21.67;;;5.90;;
19869;SDS011;10097;50.862;4.696;2023-05-27T04:33:26;22.73;;;6.20;;
19869;SDS011;10097;50.862;4.696;2023-05-27T04:35:52;28.47;;;5.73;;
19869;SDS011;10097;50.862;4.696;2023-05-27T04:38:18;24.87;;;5.97;;
19869;SDS011;10097;50.862;4.696;2023-05-27T04:40:46;20.97;;;6.43;;
19869;SDS011;10097;50.862;4.696;2023-05-27T04:43:21;21.87;;;6.10;;
19869;SDS011;10097;50.862;4.696;2023-05-27T04:45:48;25.70;;;5.90;;
19869;SDS011;10097;50.862;4.696;2023-05-27T04:48:14;22.67;;;5.80;;
19869;SDS011;10097;50.862;4.696;2023-05-27T04:50:41;21.57;;;6.33;;
19869;SDS011;10097;50.862;4.696;2023-05-27T04:53:07;22.47;;;6.40;;
19869;SDS011;10097;50.862;4.696;2023-05-27T04:55:33;26.27;;;6.00;;
19869;SDS011;10097;50.862;4.696;2023-05-27T04:58:00;23.37;;;6.47;;
19869;SDS011;10097;50.862;4.696;2023-05-27T05:00:28;30.03;;;6.13;;
19869;SDS011;10097;50.862;4.696;2023-05-27T05:03:07;27.87;;;6.43;;
19869;SDS011;10097;50.862;4.696;2023-05-27T05:05:33;25.60;;;6.37;;
19869;SDS011;10097;50.862;4.696;2023-05-27T05:07:59;26.80;;;6.27;;
19869;SDS011;10097;50.862;4.696;2023-05-27T05:10:25;29.67;;;6.93;;
19869;SDS011;10097;50.862;4.696;2023-05-27T05:12:51;26.07;;;6.73;;
19869;SDS011;10097;50.862;4.696;2023-05-27T05:15:17;28.07;;;6.73;;
19869;SDS011;10097;50.862;4.696;2023-05-27T05:17:43;25.60;;;6.90;;
19869;SDS011;10097;50.862;4.696;2023-05-27T05:20:09;23.63;;;6.53;;
19869;SDS011;10097;50.862;4.696;2023-05-27T05:22:35;27.93;;;6.43;;
19869;SDS011;10097;50.862;4.696;2023-05-27T05:25:01;32.67;;;7.80;;
19869;SDS011;10097;50.862;4.696;2023-05-27T05:27:27;22.30;;;6.87;;
19869;SDS011;10097;50.862;4.696;2023-05-27T05:29:53;27.50;;;7.50;;
19869;SDS011;10097;50.862;4.696;2023-05-27T05:32:19;21.17;;;6.57;;
19869;SDS011;10097;50.862;4.696;2023-05-27T05:34:45;24.27;;;6.77;;
19869;SDS011;10097;50.862;4.696;2023-05-27T05:37:10;27.50;;;7.17;;
19869;SDS011;10097;50.862;4.696;2023-05-27T05:39:36;21.40;;;6.47;;
19869;SDS011;10097;50.862;4.696;2023-05-27T05:42:02;20.37;;;6.87;;
19869;SDS011;10097;50.862;4.696;2023-05-27T05:44:28;30.10;;;7.37;;
19869;SDS011;10097;50.862;4.696;2023-05-27T05:46:54;27.73;;;8.00;;
19869;SDS011;10097;50.862;4.696;2023-05-27T05:49:19;27.63;;;6.67;;
19869;SDS011;10097;50.862;4.696;2023-05-27T05:51:45;27.50;;;7.30;;
19869;SDS011;10097;50.862;4.696;2023-05-27T05:54:11;29.33;;;8.00;;
19869;SDS011;10097;50.862;4.696;2023-05-27T05:56:36;24.67;;;7.60;;
19869;SDS011;10097;50.862;4.696;2023-05-27T05:59:02;29.30;;;7.57;;
19869;SDS011;10097;50.862;4.696;2023-05-27T06:01:28;22.40;;;7.00;;
19869;SDS011;10097;50.862;4.696;2023-05-27T06:03:54;21.23;;;6.73;;
19869;SDS011;10097;50.862;4.696;2023-05-27T06:06:20;23.23;;;6.57;;
19869;SDS011;10097;50.862;4.696;2023-05-27T06:08:45;21.90;;;7.40;;
19869;SDS011;10097;50.862;4.696;2023-05-27T06:11:11;23.27;;;6.50;;
19869;SDS011;10097;50.862;4.696;2023-05-27T06:13:37;23.40;;;7.00;;
19869;SDS011;10097;50.862;4.696;2023-05-27T06:16:03;23.50;;;7.10;;
19869;SDS011;10097;50.862;4.696;2023-05-27T06:18:29;29.97;;;8.13;;
19869;SDS011;10097;50.862;4.696;2023-05-27T06:20:54;32.27;;;7.20;;
19869;SDS011;10097;50.862;4.696;2023-05-27T06:23:20;30.90;;;7.20;;
19869;SDS011;10097;50.862;4.696;2023-05-27T06:25:46;26.83;;;7.47;;
19869;SDS011;10097;50.862;4.696;2023-05-27T06:28:11;20.03;;;7.27;;
19869;SDS011;10097;50.862;4.696;2023-05-27T06:30:37;24.13;;;6.40;;
19869;SDS011;10097;50.862;4.696;2023-05-27T06:33:03;27.40;;;7.57;;
19869;SDS011;10097;50.862;4.696;2023-05-27T06:35:29;22.20;;;6.60;;
19869;SDS011;10097;50.862;4.696;2023-05-27T06:37:54;26.63;;;9.13;;
19869;SDS011;10097;50.862;4.696;2023-05-27T06:40:20;23.37;;;6.70;;
19869;SDS011;10097;50.862;4.696;2023-05-27T06:42:46;25.77;;;6.57;;
19869;SDS011;10097;50.862;4.696;2023-05-27T06:45:11;25.07;;;6.70;;
19869;SDS011;10097;50.862;4.696;2023-05-27T06:47:38;25.60;;;7.70;;
19869;SDS011;10097;50.862;4.696;2023-05-27T06:50:04;24.37;;;6.83;;
19869;SDS011;10097;50.862;4.696;2023-05-27T06:52:30;28.43;;;7.23;;
19869;SDS011;10097;50.862;4.696;2023-05-27T06:54:56;25.27;;;7.43;;
19869;SDS011;10097;50.862;4.696;2023-05-27T06:57:21;28.67;;;6.90;;
19869;SDS011;10097;50.862;4.696;2023-05-27T06:59:47;24.80;;;6.70;;
19869;SDS011;10097;50.862;4.696;2023-05-27T07:02:13;21.60;;;6.80;;
19869;SDS011;10097;50.862;4.696;2023-05-27T07:04:39;23.00;;;7.43;;
19869;SDS011;10097;50.862;4.696;2023-05-27T07:07:05;34.03;;;6.77;;
19869;SDS011;10097;50.862;4.696;2023-05-27T07:09:30;23.63;;;6.87;;
19869;SDS011;10097;50.862;4.696;2023-05-27T07:11:56;19.70;;;6.70;;
19869;SDS011;10097;50.862;4.696;2023-05-27T07:14:22;21.07;;;7.00;;
19869;SDS011;10097;50.862;4.696;2023-05-27T07:16:47;26.87;;;7.10;;
19869;SDS011;10097;50.862;4.696;2023-05-27T07:19:13;27.77;;;6.77;;
19869;SDS011;10097;50.862;4.696;2023-05-27T07:21:39;28.23;;;7.07;;
19869;SDS011;10097;50.862;4.696;2023-05-27T07:24:04;26.10;;;6.37;;
19869;SDS011;10097;50.862;4.696;2023-05-27T07:26:30;21.97;;;6.97;;
19869;SDS011;10097;50.862;4.696;2023-05-27T07:28:57;20.53;;;6.90;;
19869;SDS011;10097;50.862;4.696;2023-05-27T07:31:24;20.37;;;5.90;;
19869;SDS011;10097;50.862;4.696;2023-05-27T07:33:51;29.70;;;6.47;;
19869;SDS011;10097;50.862;4.696;2023-05-27T07:36:17;22.10;;;6.70;;
19869;SDS011;10097;50.862;4.696;2023-05-27T07:38:42;20.87;;;6.27;;
19869;SDS011;10097;50.862;4.696;2023-05-27T07:41:08;22.97;;;6.83;;
19869;SDS011;10097;50.862;4.696;2023-05-27T07:43:33;24.03;;;6.67;;
19869;SDS011;10097;50.862;4.696;2023-05-27T07:45:59;22.63;;;6.60;;
19869;SDS011;10097;50.862;4.696;2023-05-27T07:48:26;25.17;;;6.23;;
19869;SDS011;10097;50.862;4.696;2023-05-27T07:50:52;27.07;;;6.67;;
19869;SDS011;10097;50.862;4.696;2023-05-27T07:53:18;24.97;;;6.30;;
19869;SDS011;10097;50.862;4.696;2023-05-27T07:55:44;27.40;;;6.60;;
19869;SDS011;10097;50.862;4.696;2023-05-27T07:58:09;28.50;;;6.70;;
19869;SDS011;10097;50.862;4.696;2023-05-27T08:00:35;24.67;;;6.07;;
19869;SDS011;10097;50.862;4.696;2023-05-27T08:03:01;24.37;;;7.23;;
19869;SDS011;10097;50.862;4.696;2023-05-27T08:05:26;22.33;;;6.70;;
19869;SDS011;10097;50.862;4.696;2023-05-27T08:07:52;28.63;;;6.85;;
19869;SDS011;10097;50.862;4.696;2023-05-27T08:10:17;22.17;;;6.30;;
19869;SDS011;10097;50.862;4.696;2023-05-27T08:12:43;24.73;;;7.25;;
19869;SDS011;10097;50.862;4.696;2023-05-27T08:15:09;24.13;;;6.95;;
19869;SDS011;10097;50.862;4.696;2023-05-27T08:17:34;20.88;;;6.30;;
19869;SDS011;10097;50.862;4.696;2023-05-27T08:20:00;24.92;;;6.25;;
19869;SDS011;10097;50.862;4.696;2023-05-27T08:22:26;19.40;;;6.05;;
19869;SDS011;10097;50.862;4.696;2023-05-27T08:24:51;25.50;;;6.32;;
19869;SDS011;10097;50.862;4.696;2023-05-27T08:27:19;14.63;;;5.47;;
19869;SDS011;10097;50.862;4.696;2023-05-27T08:29:46;20.73;;;6.18;;
19869;SDS011;10097;50.862;4.696;2023-05-27T08:32:11;22.13;;;5.97;;
19869;SDS011;10097;50.862;4.696;2023-05-27T08:34:38;25.27;;;6.55;;
19869;SDS011;10097;50.862;4.696;2023-05-27T08:37:03;20.67;;;5.93;;
19869;SDS011;10097;50.862;4.696;2023-05-27T08:39:30;23.27;;;6.30;;
19869;SDS011;10097;50.862;4.696;2023-05-27T08:41:56;18.90;;;6.07;;
19869;SDS011;10097;50.862;4.696;2023-05-27T08:44:25;23.58;;;5.95;;
19869;SDS011;10097;50.862;4.696;2023-05-27T08:46:50;20.80;;;5.40;;
19869;SDS011;10097;50.862;4.696;2023-05-27T08:49:17;19.98;;;5.90;;
19869;SDS011;10097;50.862;4.696;2023-05-27T08:51:43;22.35;;;6.22;;
19869;SDS011;10097;50.862;4.696;2023-05-27T08:54:10;16.50;;;5.45;;
19869;SDS011;10097;50.862;4.696;2023-05-27T08:56:36;25.65;;;5.72;;
19869;SDS011;10097;50.862;4.696;2023-05-27T08:59:02;23.55;;;6.13;;
19869;SDS011;10097;50.862;4.696;2023-05-27T09:01:28;25.23;;;7.00;;
19869;SDS011;10097;50.862;4.696;2023-05-27T09:03:55;20.15;;;5.65;;
19869;SDS011;10097;50.862;4.696;2023-05-27T09:06:21;25.58;;;5.45;;
19869;SDS011;10097;50.862;4.696;2023-05-27T09:08:47;17.85;;;6.13;;
19869;SDS011;10097;50.862;4.696;2023-05-27T09:11:22;22.13;;;5.65;;
19869;SDS011;10097;50.862;4.696;2023-05-27T09:13:50;24.63;;;5.65;;
19869;SDS011;10097;50.862;4.696;2023-05-27T09:16:21;19.75;;;5.68;;
19869;SDS011;10097;50.862;4.696;2023-05-27T09:18:48;21.48;;;5.78;;
19869;SDS011;10097;50.862;4.696;2023-05-27T09:21:14;21.65;;;5.63;;
19869;SDS011;10097;50.862;4.696;2023-05-27T09:23:41;18.77;;;5.68;;
19869;SDS011;10097;50.862;4.696;2023-05-27T09:26:07;18.83;;;5.78;;
19869;SDS011;10097;50.862;4.696;2023-05-27T09:28:37;22.83;;;6.45;;
19869;SDS011;10097;50.862;4.696;2023-05-27T09:31:03;24.45;;;6.88;;
19869;SDS011;10097;50.862;4.696;2023-05-27T09:33:31;18.83;;;5.72;;
19869;SDS011;10097;50.862;4.696;2023-05-27T09:36:01;21.25;;;5.97;;
19869;SDS011;10097;50.862;4.696;2023-05-27T09:38:28;18.13;;;5.22;;
19869;SDS011;10097;50.862;4.696;2023-05-27T09:40:56;18.35;;;5.53;;
19869;SDS011;10097;50.862;4.696;2023-05-27T09:43:25;21.55;;;6.63;;
19869;SDS011;10097;50.862;4.696;2023-05-27T09:45:52;20.27;;;5.47;;
19869;SDS011;10097;50.862;4.696;2023-05-27T09:48:31;19.77;;;5.43;;
19869;SDS011;10097;50.862;4.696;2023-05-27T09:50:57;21.92;;;6.68;;
19869;SDS011;10097;50.862;4.696;2023-05-27T09:53:28;21.23;;;5.47;;
19869;SDS011;10097;50.862;4.696;2023-05-27T09:55:55;22.05;;;6.07;;
19869;SDS011;10097;50.862;4.696;2023-05-27T09:58:22;22.63;;;6.07;;
19869;SDS011;10097;50.862;4.696;2023-05-27T10:00:48;19.35;;;5.97;;
19869;SDS011;10097;50.862;4.696;2023-05-27T10:03:15;21.30;;;4.65;;
19869;SDS011;10097;50.862;4.696;2023-05-27T10:05:45;20.15;;;5.63;;
19869;SDS011;10097;50.862;4.696;2023-05-27T10:08:13;16.77;;;5.93;;
19869;SDS011;10097;50.862;4.696;2023-05-27T10:10:39;24.67;;;6.00;;
19869;SDS011;10097;50.862;4.696;2023-05-27T10:13:05;23.92;;;6.03;;
19869;SDS011;10097;50.862;4.696;2023-05-27T10:15:32;23.08;;;6.60;;
19869;SDS011;10097;50.862;4.696;2023-05-27T10:18:07;18.25;;;5.25;;
19869;SDS011;10097;50.862;4.696;2023-05-27T10:20:36;15.60;;;5.00;;
19869;SDS011;10097;50.862;4.696;2023-05-27T10:25:40;17.70;;;5.18;;
19869;SDS011;10097;50.862;4.696;2023-05-27T10:33:37;18.17;;;4.93;;
19869;SDS011;10097;50.862;4.696;2023-05-27T10:36:04;18.30;;;4.82;;
19869;SDS011;10097;50.862;4.696;2023-05-27T10:38:40;16.33;;;4.82;;
19869;SDS011;10097;50.862;4.696;2023-05-27T10:41:06;18.98;;;4.72;;
19869;SDS011;10097;50.862;4.696;2023-05-27T10:43:33;18.08;;;3.60;;
19869;SDS011;10097;50.862;4.696;2023-05-27T10:46:09;20.98;;;4.32;;
19869;SDS011;10097;50.862;4.696;2023-05-27T10:48:37;17.95;;;4.43;;
19869;SDS011;10097;50.862;4.696;2023-05-27T10:51:04;14.57;;;4.50;;
19869;SDS011;10097;50.862;4.696;2023-05-27T10:53:31;14.63;;;4.35;;
19869;SDS011;10097;50.862;4.696;2023-05-27T10:56:01;18.95;;;4.80;;
19869;SDS011;10097;50.862;4.696;2023-05-27T10:58:26;15.35;;;3.67;;
19869;SDS011;10097;50.862;4.696;2023-05-27T11:00:54;18.00;;;5.15;;
19869;SDS011;10097;50.862;4.696;2023-05-27T11:03:25;17.92;;;4.30;;
19869;SDS011;10097;50.862;4.696;2023-05-27T11:08:24;19.27;;;4.93;;
19869;SDS011;10097;50.862;4.696;2023-05-27T11:10:50;16.23;;;4.57;;
19869;SDS011;10097;50.862;4.696;2023-05-27T11:13:15;15.00;;;3.78;;
19869;SDS011;10097;50.862;4.696;2023-05-27T11:15:41;15.55;;;3.67;;
19869;SDS011;10097;50.862;4.696;2023-05-27T11:18:07;20.48;;;4.80;;
19869;SDS011;10097;50.862;4.696;2023-05-27T11:20:37;15.02;;;4.35;;
19869;SDS011;10097;50.862;4.696;2023-05-27T11:23:03;20.98;;;4.32;;
19869;SDS011;10097;50.862;4.696;2023-05-27T11:25:40;15.32;;;4.15;;
19869;SDS011;10097;50.862;4.696;2023-05-27T11:28:13;14.82;;;4.00;;
19869;SDS011;10097;50.862;4.696;2023-05-27T11:30:40;14.75;;;4.03;;
19869;SDS011;10097;50.862;4.696;2023-05-27T11:33:07;13.93;;;3.85;;
19869;SDS011;10097;50.862;4.696;2023-05-27T11:35:33;15.65;;;4.15;;
19869;SDS011;10097;50.862;4.696;2023-05-27T11:38:00;14.90;;;4.18;;
19869;SDS011;10097;50.862;4.696;2023-05-27T11:40:33;16.20;;;3.92;;
19869;SDS011;10097;50.862;4.696;2023-05-27T11:43:00;14.65;;;3.95;;
19869;SDS011;10097;50.862;4.696;2023-05-27T11:45:27;20.75;;;4.75;;
19869;SDS011;10097;50.862;4.696;2023-05-27T11:47:52;14.13;;;3.75;;
19869;SDS011;10097;50.862;4.696;2023-05-27T11:50:22;16.05;;;5.03;;
19869;SDS011;10097;50.862;4.696;2023-05-27T11:52:50;16.95;;;4.32;;
19869;SDS011;10097;50.862;4.696;2023-05-27T11:55:17;14.38;;;4.43;;
19869;SDS011;10097;50.862;4.696;2023-05-27T11:57:42;16.98;;;3.92;;
19869;SDS011;10097;50.862;4.696;2023-05-27T12:00:08;13.20;;;3.47;;
19869;SDS011;10097;50.862;4.696;2023-05-27T12:02:34;15.10;;;4.40;;
19869;SDS011;10097;50.862;4.696;2023-05-27T12:05:00;14.57;;;3.95;;
19869;SDS011;10097;50.862;4.696;2023-05-27T12:07:26;14.27;;;3.95;;
19869;SDS011;10097;50.862;4.696;2023-05-27T12:09:51;18.52;;;3.60;;
19869;SDS011;10097;50.862;4.696;2023-05-27T12:12:20;22.48;;;4.60;;
19869;SDS011;10097;50.862;4.696;2023-05-27T12:14:46;20.08;;;4.55;;
19869;SDS011;10097;50.862;4.696;2023-05-27T12:17:11;15.63;;;4.18;;
19869;SDS011;10097;50.862;4.696;2023-05-27T12:19:37;18.90;;;4.82;;
19869;SDS011;10097;50.862;4.696;2023-05-27T12:22:03;16.02;;;4.50;;
19869;SDS011;10097;50.862;4.696;2023-05-27T12:24:28;19.55;;;4.30;;
19869;SDS011;10097;50.862;4.696;2023-05-27T12:26:54;16.33;;;4.10;;
19869;SDS011;10097;50.862;4.696;2023-05-27T12:29:21;13.00;;;4.30;;
19869;SDS011;10097;50.862;4.696;2023-05-27T12:31:49;16.13;;;4.57;;
19869;SDS011;10097;50.862;4.696;2023-05-27T12:34:15;16.10;;;4.07;;
19869;SDS011;10097;50.862;4.696;2023-05-27T12:36:41;17.55;;;3.53;;
19869;SDS011;10097;50.862;4.696;2023-05-27T12:39:07;18.88;;;4.43;;
19869;SDS011;10097;50.862;4.696;2023-05-27T12:41:32;17.45;;;3.83;;
19869;SDS011;10097;50.862;4.696;2023-05-27T12:43:58;16.55;;;3.92;;
19869;SDS011;10097;50.862;4.696;2023-05-27T12:46:24;15.75;;;4.00;;
19869;SDS011;10097;50.862;4.696;2023-05-27T12:48:50;17.55;;;3.95;;
19869;SDS011;10097;50.862;4.696;2023-05-27T12:51:15;15.52;;;3.95;;
19869;SDS011;10097;50.862;4.696;2023-05-27T12:53:41;14.93;;;3.95;;
19869;SDS011;10097;50.862;4.696;2023-05-27T12:56:06;16.58;;;4.20;;
19869;SDS011;10097;50.862;4.696;2023-05-27T12:58:32;14.73;;;3.50;;
19869;SDS011;10097;50.862;4.696;2023-05-27T13:00:58;16.10;;;3.70;;
19869;SDS011;10097;50.862;4.696;2023-05-27T13:03:24;19.08;;;4.15;;
19869;SDS011;10097;50.862;4.696;2023-05-27T13:05:49;17.42;;;4.50;;
19869;SDS011;10097;50.862;4.696;2023-05-27T13:08:15;17.05;;;3.83;;
19869;SDS011;10097;50.862;4.696;2023-05-27T13:10:41;16.67;;;4.32;;
19869;SDS011;10097;50.862;4.696;2023-05-27T13:13:06;16.75;;;3.90;;
19869;SDS011;10097;50.862;4.696;2023-05-27T13:15:32;20.30;;;5.00;;
19869;SDS011;10097;50.862;4.696;2023-05-27T13:17:58;15.63;;;4.10;;
19869;SDS011;10097;50.862;4.696;2023-05-27T13:20:24;14.85;;;4.57;;
19869;SDS011;10097;50.862;4.696;2023-05-27T13:22:53;20.42;;;4.07;;
19869;SDS011;10097;50.862;4.696;2023-05-27T13:25:18;15.80;;;3.53;;
19869;SDS011;10097;50.862;4.696;2023-05-27T13:27:44;16.33;;;3.30;;
19869;SDS011;10097;50.862;4.696;2023-05-27T13:30:11;12.13;;;3.60;;
19869;SDS011;10097;50.862;4.696;2023-05-27T13:32:39;17.48;;;3.75;;
19869;SDS011;10097;50.862;4.696;2023-05-27T13:35:05;11.65;;;3.10;;
19869;SDS011;10097;50.862;4.696;2023-05-27T13:37:30;17.15;;;3.78;;
19869;SDS011;10097;50.862;4.696;2023-05-27T13:39:56;18.15;;;3.60;;
19869;SDS011;10097;50.862;4.696;2023-05-27T13:42:23;15.38;;;3.30;;
19869;SDS011;10097;50.862;4.696;2023-05-27T13:44:49;14.13;;;3.90;;
19869;SDS011;10097;50.862;4.696;2023-05-27T13:47:14;15.70;;;3.65;;
19869;SDS011;10097;50.862;4.696;2023-05-27T13:49:40;13.48;;;4.47;;
19869;SDS011;10097;50.862;4.696;2023-05-27T13:52:05;17.58;;;3.55;;
19869;SDS011;10097;50.862;4.696;2023-05-27T13:54:31;15.90;;;4.05;;
19869;SDS011;10097;50.862;4.696;2023-05-27T13:56:57;15.82;;;3.75;;
19869;SDS011;10097;50.862;4.696;2023-05-27T13:59:22;13.25;;;4.03;;
19869;SDS011;10097;50.862;4.696;2023-05-27T14:01:48;11.70;;;3.40;;
19869;SDS011;10097;50.862;4.696;2023-05-27T14:04:16;18.20;;;4.25;;
19869;SDS011;10097;50.862;4.696;2023-05-27T14:06:42;13.45;;;3.75;;
19869;SDS011;10097;50.862;4.696;2023-05-27T14:09:08;14.40;;;3.42;;
19869;SDS011;10097;50.862;4.696;2023-05-27T14:11:33;13.73;;;3.70;;
19869;SDS011;10097;50.862;4.696;2023-05-27T14:13:59;11.15;;;2.90;;
19869;SDS011;10097;50.862;4.696;2023-05-27T14:16:25;12.93;;;3.53;;
19869;SDS011;10097;50.862;4.696;2023-05-27T14:18:51;14.00;;;3.50;;
19869;SDS011;10097;50.862;4.696;2023-05-27T14:21:16;15.52;;;3.72;;
19869;SDS011;10097;50.862;4.696;2023-05-27T14:23:43;13.02;;;3.47;;
19869;SDS011;10097;50.862;4.696;2023-05-27T14:26:09;14.50;;;4.03;;
19869;SDS011;10097;50.862;4.696;2023-05-27T14:28:35;12.32;;;3.70;;
19869;SDS011;10097;50.862;4.696;2023-05-27T14:31:01;13.18;;;3.67;;
19869;SDS011;10097;50.862;4.696;2023-05-27T14:33:27;13.45;;;3.63;;
19869;SDS011;10097;50.862;4.696;2023-05-27T14:35:52;14.50;;;3.50;;
19869;SDS011;10097;50.862;4.696;2023-05-27T14:38:18;14.10;;;3.63;;
19869;SDS011;10097;50.862;4.696;2023-05-27T14:40:45;10.65;;;3.47;;
19869;SDS011;10097;50.862;4.696;2023-05-27T14:43:11;14.20;;;3.45;;
19869;SDS011;10097;50.862;4.696;2023-05-27T14:45:37;16.10;;;3.40;;
19869;SDS011;10097;50.862;4.696;2023-05-27T14:48:04;10.07;;;3.30;;